sensor_id;sensor_type;location;lat;lon;timestamp;pressure;altitude;pressure_sealevel;temperature;humidity
76331;BME280;65148;51.912;15.570;2023-02-23T00:08:48;101529.87;;;3.36;88.39
76331;BME280;65148;51.912;15.570;2023-02-23T00:23:59;101523.58;;;3.23;88.62
76331;BME280;65148;51.912;15.570;2023-02-23T00:39:04;101522.02;;;3.09;89.27
76331;BME280;65148;51.912;15.570;2023-02-23T00:54:45;101526.10;;;2.87;90.14
76331;BME280;65148;51.912;15.570;2023-02-23T01:09:46;101524.66;;;2.84;90.21
76331;BME280;65148;51.912;15.570;2023-02-23T01:24:47;101508.36;;;2.79;90.81
76331;BME280;65148;51.912;15.570;2023-02-23T01:39:48;101496.33;;;2.82;90.91
76331;BME280;65148;51.912;15.570;2023-02-23T01:54:52;101473.28;;;2.68;91.42
76331;BME280;65148;51.912;15.570;2023-02-23T02:09:57;101465.16;;;2.74;93.01
76331;BME280;65148;51.912;15.570;2023-02-23T02:40:50;101432.24;;;3.04;91.42
76331;BME280;65148;51.912;15.570;2023-02-23T02:55:56;101437.16;;;3.13;90.86
76331;BME280;65148;51.912;15.570;2023-02-23T03:11:04;101422.64;;;3.14;90.04
76331;BME280;65148;51.912;15.570;2023-02-23T03:42:12;101406.18;;;3.04;89.30
76331;BME280;65148;51.912;15.570;2023-02-23T03:57:30;101403.27;;;3.06;89.29
76331;BME280;65148;51.912;15.570;2023-02-23T04:12:53;101393.63;;;2.98;89.42
76331;BME280;65148;51.912;15.570;2023-02-23T04:28:35;101375.34;;;2.82;89.48
76331;BME280;65148;51.912;15.570;2023-02-23T04:43:36;101371.27;;;2.73;89.61
76331;BME280;65148;51.912;15.570;2023-02-23T04:58:38;101362.98;;;2.49;90.27
76331;BME280;65148;51.912;15.570;2023-02-23T05:13:38;101359.30;;;2.44;90.76
76331;BME280;65148;51.912;15.570;2023-02-23T05:28:41;101357.73;;;2.36;91.04
76331;BME280;65148;51.912;15.570;2023-02-23T05:43:42;101360.95;;;2.45;90.40
76331;BME280;65148;51.912;15.570;2023-02-23T05:58:43;101358.91;;;2.40;90.56
76331;BME280;65148;51.912;15.570;2023-02-23T06:13:44;101358.30;;;2.38;90.92
76331;BME280;65148;51.912;15.570;2023-02-23T06:28:45;101364.69;;;2.44;91.05
76331;BME280;65148;51.912;15.570;2023-02-23T06:43:46;101370.00;;;2.50;91.77
76331;BME280;65148;51.912;15.570;2023-02-23T06:59:15;101362.95;;;2.56;91.63
76331;BME280;65148;51.912;15.570;2023-02-23T07:14:16;101369.05;;;2.70;91.09
76331;BME280;65148;51.912;15.570;2023-02-23T07:29:17;101364.37;;;2.83;91.27
76331;BME280;65148;51.912;15.570;2023-02-23T07:44:19;101363.33;;;3.27;90.94
76331;BME280;65148;51.912;15.570;2023-02-23T07:59:20;101347.70;;;3.73;90.15
76331;BME280;65148;51.912;15.570;2023-02-23T08:14:22;101332.12;;;4.34;87.82
76331;BME280;65148;51.912;15.570;2023-02-23T08:29:23;101325.13;;;4.57;85.60
76331;BME280;65148;51.912;15.570;2023-02-23T08:44:25;101316.38;;;5.08;84.80
76331;BME280;65148;51.912;15.570;2023-02-23T08:59:26;101308.22;;;5.83;82.90
76331;BME280;65148;51.912;15.570;2023-02-23T09:14:27;101298.24;;;6.29;80.05
76331;BME280;65148;51.912;15.570;2023-02-23T09:29:52;101287.68;;;6.60;78.31
76331;BME280;65148;51.912;15.570;2023-02-23T10:00:19;101279.42;;;7.71;76.20
76331;BME280;65148;51.912;15.570;2023-02-23T10:15:54;101272.33;;;7.92;76.57
76331;BME280;65148;51.912;15.570;2023-02-23T10:46:24;101259.18;;;9.84;70.28
76331;BME280;65148;51.912;15.570;2023-02-23T11:01:42;101241.27;;;10.64;69.11
76331;BME280;65148;51.912;15.570;2023-02-23T11:32:30;101206.52;;;11.20;68.28
76331;BME280;65148;51.912;15.570;2023-02-23T11:47:33;101188.91;;;11.57;67.86
76331;BME280;65148;51.912;15.570;2023-02-23T12:18:00;101152.47;;;12.16;67.56
76331;BME280;65148;51.912;15.570;2023-02-23T13:19:51;101095.14;;;13.48;66.64
76331;BME280;65148;51.912;15.570;2023-02-23T13:34:59;101089.22;;;13.41;67.17
76331;BME280;65148;51.912;15.570;2023-02-23T14:04:46;101079.42;;;14.05;67.13
76331;BME280;65148;51.912;15.570;2023-02-23T14:35:01;101054.78;;;14.19;67.62
76331;BME280;65148;51.912;15.570;2023-02-23T14:50:02;101046.65;;;14.00;70.56
76331;BME280;65148;51.912;15.570;2023-02-23T15:05:13;101039.44;;;13.91;70.29
76331;BME280;65148;51.912;15.570;2023-02-23T15:20:39;101027.27;;;13.83;72.45
76331;BME280;65148;51.912;15.570;2023-02-23T15:35:54;101029.85;;;13.61;72.18
76331;BME280;65148;51.912;15.570;2023-02-23T15:50:56;101020.66;;;13.38;74.17
76331;BME280;65148;51.912;15.570;2023-02-23T16:06:05;101016.27;;;12.99;76.08
76331;BME280;65148;51.912;15.570;2023-02-23T16:21:13;101018.04;;;12.71;77.36
76331;BME280;65148;51.912;15.570;2023-02-23T16:36:35;101022.73;;;12.23;79.38
76331;BME280;65148;51.912;15.570;2023-02-23T16:51:39;101016.79;;;11.92;89.61
76331;BME280;65148;51.912;15.570;2023-02-23T17:06:42;101030.32;;;11.40;92.18
76331;BME280;65148;51.912;15.570;2023-02-23T17:22:10;101018.84;;;11.09;100.00
76331;BME280;65148;51.912;15.570;2023-02-23T17:37:12;101037.59;;;11.15;100.00
76331;BME280;65148;51.912;15.570;2023-02-23T17:52:13;101037.42;;;11.02;100.00
76331;BME280;65148;51.912;15.570;2023-02-23T18:07:16;101028.22;;;11.31;100.00
76331;BME280;65148;51.912;15.570;2023-02-23T18:22:37;101011.22;;;11.06;100.00
76331;BME280;65148;51.912;15.570;2023-02-23T18:37:38;100992.15;;;11.06;100.00
76331;BME280;65148;51.912;15.570;2023-02-23T18:52:40;100995.39;;;11.13;100.00
76331;BME280;65148;51.912;15.570;2023-02-23T19:07:42;100995.74;;;11.01;100.00
76331;BME280;65148;51.912;15.570;2023-02-23T19:23:04;100983.03;;;10.86;100.00
76331;BME280;65148;51.912;15.570;2023-02-23T19:38:06;100979.23;;;10.82;100.00
76331;BME280;65148;51.912;15.570;2023-02-23T19:53:07;100974.30;;;10.89;100.00
76331;BME280;65148;51.912;15.570;2023-02-23T20:08:08;100960.43;;;10.86;100.00
76331;BME280;65148;51.912;15.570;2023-02-23T20:23:32;100948.59;;;10.61;100.00
76331;BME280;65148;51.912;15.570;2023-02-23T20:38:33;100940.41;;;10.67;100.00
76331;BME280;65148;51.912;15.570;2023-02-23T20:53:36;100933.59;;;10.69;100.00
76331;BME280;65148;51.912;15.570;2023-02-23T21:08:38;100928.22;;;10.59;100.00
76331;BME280;65148;51.912;15.570;2023-02-23T21:23:59;100914.87;;;10.57;100.00
76331;BME280;65148;51.912;15.570;2023-02-23T21:39:00;100910.39;;;10.28;100.00
76331;BME280;65148;51.912;15.570;2023-02-23T21:54:02;100896.77;;;10.38;100.00
76331;BME280;65148;51.912;15.570;2023-02-23T22:09:05;100888.63;;;10.28;100.00
76331;BME280;65148;51.912;15.570;2023-02-23T22:24:27;100878.50;;;9.84;100.00
76331;BME280;65148;51.912;15.570;2023-02-23T22:39:28;100865.70;;;9.84;100.00
76331;BME280;65148;51.912;15.570;2023-02-23T22:54:33;100858.89;;;9.87;100.00
76331;BME280;65148;51.912;15.570;2023-02-23T23:09:34;100843.20;;;9.69;100.00
76331;BME280;65148;51.912;15.570;2023-02-23T23:24:56;100829.12;;;9.57;100.00
76331;BME280;65148;51.912;15.570;2023-02-23T23:39:57;100802.21;;;9.60;100.00
76331;BME280;65148;51.912;15.570;2023-02-23T23:55:11;100794.88;;;9.56;100.00
